createdAt,value
2022-09-28T00:00:23.803Z,99303.44
2022-09-28T00:03:21.544Z,99293.09
2022-09-28T00:06:24.416Z,99298.44
2022-09-28T00:09:21.109Z,99286.28
2022-09-28T00:12:18.634Z,99283.44
2022-09-28T00:15:16.543Z,99285.81
2022-09-28T00:18:13.023Z,99286.56
2022-09-28T00:21:12.898Z,99277.19
2022-09-28T00:24:17.437Z,99280.00
2022-09-28T00:27:14.267Z,99277.38
2022-09-28T00:30:11.242Z,99274.03
2022-09-28T00:33:08.433Z,99270.75
2022-09-28T00:36:05.475Z,99274.78
2022-09-28T00:39:06.868Z,99274.91
2022-09-28T00:42:13.438Z,99278.72
2022-09-28T00:45:10.440Z,99269.19
2022-09-28T00:48:07.532Z,99271.28
2022-09-28T00:51:07.221Z,99274.91
2022-09-28T00:54:04.683Z,99259.03
2022-09-28T00:57:01.263Z,99260.19
2022-09-28T00:59:59.191Z,99257.44
2022-09-28T01:02:56.432Z,99250.34
2022-09-28T01:05:53.188Z,99250.34
2022-09-28T01:08:51.635Z,99256.41
2022-09-28T01:11:49.241Z,99250.44
2022-09-28T01:14:46.166Z,99247.09
2022-09-28T01:18:02.709Z,99248.34
2022-09-28T01:21:22.976Z,99245.19
2022-09-28T01:24:40.346Z,99237.41
2022-09-28T01:27:41.350Z,99232.47
2022-09-28T01:31:04.843Z,99230.75
2022-09-28T01:34:14.817Z,99234.03
2022-09-28T01:37:13.479Z,99233.19
2022-09-28T01:40:10.621Z,99236.06
2022-09-28T01:43:12.286Z,99233.94
2022-09-28T01:46:25.807Z,99229.22
2022-09-28T01:49:28.509Z,99221.59
2022-09-28T01:52:37.275Z,99217.94
2022-09-28T01:55:35.377Z,99224.78
2022-09-28T01:58:34.392Z,99221.56
2022-09-28T02:01:40.138Z,99211.44
2022-09-28T02:04:50.104Z,99209.78
2022-09-28T02:08:03.422Z,99212.97
2022-09-28T02:11:11.611Z,99209.69
2022-09-28T02:14:10.610Z,99210.47
2022-09-28T02:17:08.791Z,99202.81
2022-09-28T02:20:07.482Z,99208.81
2022-09-28T02:23:04.169Z,99207.66
2022-09-28T02:26:03.198Z,99206.13
2022-09-28T02:29:00.692Z,99207.84
2022-09-28T02:31:57.235Z,99211.41
2022-09-28T02:34:55.380Z,99209.88
2022-09-28T02:37:52.768Z,99214.41
2022-09-28T02:41:21.831Z,99212.91
2022-09-28T02:44:53.358Z,99212.94
2022-09-28T02:47:53.567Z,99207.75
2022-09-28T02:51:01.941Z,99210.63
2022-09-28T02:54:15.430Z,99210.59
2022-09-28T02:57:57.572Z,99202.88
2022-09-28T03:01:13.696Z,99209.25
2022-09-28T03:04:19.968Z,99211.22
2022-09-28T03:07:33.924Z,99203.97
2022-09-28T03:10:36.174Z,99204.00
2022-09-28T03:13:34.532Z,99205.13
2022-09-28T03:16:32.431Z,99212.34
2022-09-28T03:19:33.290Z,99208.34
2022-09-28T03:22:30.148Z,99213.63
2022-09-28T03:25:27.894Z,99206.44
2022-09-28T03:28:25.924Z,99210.94
2022-09-28T03:31:23.738Z,99214.16
2022-09-28T03:34:20.252Z,99206.53
2022-09-28T03:37:17.696Z,99202.53
2022-09-28T03:40:14.647Z,99204.97
2022-09-28T03:43:12.654Z,99203.38
2022-09-28T03:46:10.587Z,99202.31
2022-09-28T03:49:12.672Z,99198.69
2022-09-28T03:52:09.739Z,99199.91
2022-09-28T03:55:07.666Z,99195.16
2022-09-28T03:58:04.407Z,99198.84
2022-09-28T04:01:05.842Z,99203.34
2022-09-28T04:04:03.326Z,99198.19
2022-09-28T04:07:01.463Z,99192.88
2022-09-28T04:09:58.278Z,99191.16
2022-09-28T04:12:58.818Z,99191.06
2022-09-28T04:15:56.180Z,99202.56
2022-09-28T04:18:53.612Z,99196.97
2022-09-28T04:22:03.405Z,99200.72
2022-09-28T04:25:00.350Z,99203.63
2022-09-28T04:28:15.755Z,99209.75
2022-09-28T04:31:16.234Z,99208.97
2022-09-28T04:34:19.702Z,99203.69
2022-09-28T04:37:16.640Z,99204.06
2022-09-28T04:40:14.608Z,99213.38
2022-09-28T04:43:11.629Z,99215.78
2022-09-28T04:46:09.743Z,99208.97
2022-09-28T04:49:13.720Z,99209.34
2022-09-28T04:52:18.868Z,99209.34
2022-09-28T04:55:20.664Z,99205.38
2022-09-28T04:58:17.454Z,99204.16
2022-09-28T05:01:16.135Z,99199.78
2022-09-28T05:04:39.778Z,99208.69
2022-09-28T05:07:46.032Z,99204.94
2022-09-28T05:10:43.702Z,99206.47
2022-09-28T05:13:45.446Z,99207.22
2022-09-28T05:16:44.844Z,99208.72
2022-09-28T05:19:57.443Z,99213.50
2022-09-28T05:22:54.673Z,99216.19
2022-09-28T05:25:52.739Z,99220.63
2022-09-28T05:28:55.707Z,99210.13
2022-09-28T05:31:52.812Z,99213.59
2022-09-28T05:35:16.811Z,99207.63
2022-09-28T05:38:16.474Z,99208.78
2022-09-28T05:41:13.678Z,99214.28
2022-09-28T05:44:10.747Z,99213.22
2022-09-28T05:47:07.672Z,99203.84
2022-09-28T05:50:05.915Z,99207.34
2022-09-28T05:53:08.364Z,99207.31
2022-09-28T05:56:06.703Z,99208.84
2022-09-28T05:59:06.542Z,99202.47
2022-09-28T06:02:03.942Z,99207.31
2022-09-28T06:05:01.774Z,99204.84
2022-09-28T06:07:59.666Z,99200.09
2022-09-28T06:11:00.242Z,99214.72
2022-09-28T06:13:57.624Z,99215.94
2022-09-28T06:16:57.920Z,99212.31
2022-09-28T06:19:55.902Z,99212.31
2022-09-28T06:22:56.415Z,99220.41
2022-09-28T06:25:53.351Z,99214.34
2022-09-28T06:28:50.616Z,99225.22
2022-09-28T06:31:47.539Z,99220.81
2022-09-28T06:34:44.209Z,99226.91
2022-09-28T06:37:44.875Z,99230.97
2022-09-28T06:40:42.804Z,99226.97
2022-09-28T06:43:39.788Z,99231.03
2022-09-28T06:46:42.861Z,99239.91
2022-09-28T06:49:40.714Z,99243.19
2022-09-28T06:52:57.895Z,99248.84
2022-09-28T06:56:10.414Z,99254.09
2022-09-28T06:59:07.669Z,99252.09
2022-09-28T07:02:07.404Z,99257.34
2022-09-28T07:05:26.833Z,99261.00
2022-09-28T07:09:17.656Z,99264.63
2022-09-28T07:12:39.960Z,99258.16
2022-09-28T07:15:56.865Z,99265.03
2022-09-28T07:18:54.008Z,99267.44
2022-09-28T07:22:03.009Z,99263.41
2022-09-28T07:25:00.749Z,99266.63
2022-09-28T07:28:17.395Z,99271.47
2022-09-28T07:31:40.072Z,99278.72
2022-09-28T07:35:08.008Z,99287.22
2022-09-28T07:38:15.583Z,99281.56
2022-09-28T07:41:14.123Z,99287.59
2022-09-28T07:44:18.994Z,99290.41
2022-09-28T07:47:29.662Z,99296.06
2022-09-28T07:51:00.175Z,99291.22
2022-09-28T07:54:03.938Z,99298.50
2022-09-28T07:57:18.541Z,99297.69
2022-09-28T08:00:21.274Z,99297.28
2022-09-28T08:03:24.130Z,99301.72
2022-09-28T08:06:23.371Z,99313.06
2022-09-28T08:09:20.329Z,99309.78
2022-09-28T08:12:40.773Z,99308.19
2022-09-28T08:16:02.278Z,99307.34
2022-09-28T08:19:07.583Z,99310.19
2022-09-28T08:22:04.425Z,99319.44
2022-09-28T08:25:01.966Z,99313.81
2022-09-28T08:28:00.819Z,99322.72
2022-09-28T08:31:01.433Z,99322.75
2022-09-28T08:34:18.967Z,99335.22
2022-09-28T08:37:34.844Z,99325.53
2022-09-28T08:41:45.286Z,99340.91
2022-09-28T08:45:07.261Z,99340.94
2022-09-28T08:48:40.459Z,99343.78
2022-09-28T08:52:00.844Z,99335.28
2022-09-28T08:55:33.031Z,99344.59
2022-09-28T08:58:33.601Z,99341.75
2022-09-28T09:01:34.790Z,99342.94
2022-09-28T09:04:34.676Z,99349.81
2022-09-28T09:08:05.801Z,99346.63
2022-09-28T09:11:44.464Z,99358.72
2022-09-28T09:14:47.873Z,99352.25
2022-09-28T09:18:24.016Z,99360.72
2022-09-28T09:21:53.064Z,99358.63
2022-09-28T09:24:51.924Z,99366.25
2022-09-28T09:28:27.621Z,99367.09
2022-09-28T09:31:48.056Z,99370.72
2022-09-28T09:35:21.838Z,99373.16
2022-09-28T09:39:32.264Z,99383.31
2022-09-28T09:43:19.727Z,99383.59
2022-09-28T09:46:43.355Z,99387.66
2022-09-28T09:50:15.489Z,99387.28
2022-09-28T09:53:59.881Z,99391.00
2022-09-28T09:57:13.905Z,99389.00
2022-09-28T10:00:27.758Z,99391.44
2022-09-28T10:03:39.151Z,99393.09
2022-09-28T10:06:42.716Z,99395.16
2022-09-28T10:09:43.019Z,99396.81
2022-09-28T10:12:57.460Z,99390.75
2022-09-28T10:15:55.524Z,99395.53
2022-09-28T10:18:56.602Z,99396.75
2022-09-28T10:22:18.256Z,99402.41
2022-09-28T10:25:16.035Z,99390.63
2022-09-28T10:28:17.988Z,99410.03
2022-09-28T10:31:54.178Z,99408.88
2022-09-28T10:35:19.667Z,99414.97
2022-09-28T10:38:34.020Z,99408.09
2022-09-28T10:41:49.145Z,99410.56
2022-09-28T10:44:53.281Z,99412.19
2022-09-28T10:48:12.828Z,99413.81
2022-09-28T10:51:09.645Z,99413.03
2022-09-28T10:54:16.933Z,99419.47
2022-09-28T10:57:34.659Z,99421.97
2022-09-28T11:00:40.165Z,99421.19
2022-09-28T11:03:56.439Z,99426.78
2022-09-28T11:09:59.001Z,99428.31
2022-09-28T11:12:57.223Z,99423.50
2022-09-28T11:15:56.998Z,99422.25
2022-09-28T11:19:24.388Z,99421.81
2022-09-28T11:22:23.980Z,99416.81
2022-09-28T11:25:26.054Z,99419.88
2022-09-28T11:28:24.868Z,99422.13
2022-09-28T11:31:28.260Z,99424.59
2022-09-28T11:34:58.247Z,99410.31
2022-09-28T11:38:27.610Z,99411.66
2022-09-28T11:42:05.935Z,99423.03
2022-09-28T11:45:24.983Z,99415.72
2022-09-28T11:48:25.692Z,99419.25
2022-09-28T11:51:28.113Z,99423.94
2022-09-28T11:54:38.535Z,99417.88
2022-09-28T11:57:38.096Z,99415.88
2022-09-28T12:00:38.384Z,99412.50
2022-09-28T12:03:43.966Z,99410.81
2022-09-28T12:06:46.880Z,99411.22
2022-09-28T12:10:10.404Z,99411.00
2022-09-28T12:13:20.237Z,99415.25
2022-09-28T12:16:53.517Z,99418.94
2022-09-28T12:19:59.439Z,99417.75
2022-09-28T12:23:00.026Z,99421.78
2022-09-28T12:26:02.308Z,99423.47
2022-09-28T12:29:02.053Z,99429.09
2022-09-28T12:32:02.791Z,99420.56
2022-09-28T12:35:00.060Z,99428.94
2022-09-28T12:38:02.310Z,99420.78
2022-09-28T12:41:16.701Z,99416.81
2022-09-28T12:44:29.413Z,99415.63
2022-09-28T12:47:39.185Z,99424.50
2022-09-28T12:51:04.725Z,99420.13
2022-09-28T12:54:25.044Z,99423.00
2022-09-28T12:57:43.010Z,99420.13
2022-09-28T13:01:18.554Z,99424.22
2022-09-28T13:04:40.441Z,99417.78
2022-09-28T13:07:54.097Z,99424.31
2022-09-28T13:11:31.991Z,99429.09
2022-09-28T13:14:54.447Z,99438.72
2022-09-28T13:18:01.767Z,99433.72
2022-09-28T13:21:06.428Z,99426.56
2022-09-28T13:24:27.990Z,99428.16
2022-09-28T13:27:30.321Z,99435.00
2022-09-28T13:30:28.297Z,99435.78
2022-09-28T13:33:36.842Z,99427.75
2022-09-28T13:36:34.630Z,99429.88
2022-09-28T13:39:36.579Z,99431.97
2022-09-28T13:42:40.739Z,99440.88
2022-09-28T13:45:45.652Z,99435.66
2022-09-28T13:48:48.621Z,99438.41
2022-09-28T13:52:07.558Z,99434.78
2022-09-28T13:55:14.063Z,99445.19
2022-09-28T13:58:27.780Z,99437.03
2022-09-28T14:01:39.922Z,99428.50
2022-09-28T14:04:52.445Z,99443.00
2022-09-28T14:08:20.809Z,99435.16
2022-09-28T14:11:36.583Z,99431.88
2022-09-28T14:15:03.280Z,99443.09
2022-09-28T14:18:23.482Z,99441.81
2022-09-28T14:21:45.412Z,99436.75
2022-09-28T14:24:55.526Z,99441.63
2022-09-28T14:28:30.968Z,99432.63
2022-09-28T14:31:28.495Z,99444.31
2022-09-28T14:34:34.364Z,99432.66
2022-09-28T14:37:51.873Z,99432.38
2022-09-28T14:41:09.855Z,99441.31
2022-09-28T14:44:08.411Z,99443.28
2022-09-28T14:47:25.094Z,99443.53
2022-09-28T14:50:28.300Z,99439.03
2022-09-28T14:53:24.921Z,99447.25
2022-09-28T14:56:21.870Z,99443.66
2022-09-28T14:59:36.154Z,99448.03
2022-09-28T15:02:33.220Z,99455.56
2022-09-28T15:05:32.837Z,99460.78
2022-09-28T15:08:37.543Z,99453.03
2022-09-28T15:11:34.889Z,99450.06
2022-09-28T15:14:35.566Z,99450.16
2022-09-28T15:17:40.074Z,99447.47
2022-09-28T15:20:38.032Z,99455.59
2022-09-28T15:23:43.146Z,99453.63
2022-09-28T15:26:40.171Z,99456.22
2022-09-28T15:29:37.224Z,99448.88
2022-09-28T15:32:34.135Z,99450.53
2022-09-28T15:35:30.986Z,99455.75
2022-09-28T15:38:28.072Z,99461.38
2022-09-28T15:41:24.910Z,99458.19
2022-09-28T15:44:33.078Z,99478.47
2022-09-28T15:47:33.005Z,99468.63
2022-09-28T15:50:30.101Z,99463.19
2022-09-28T15:53:26.838Z,99462.50
2022-09-28T15:56:23.819Z,99467.97
2022-09-28T15:59:39.749Z,99480.88
2022-09-28T16:02:37.250Z,99479.59
2022-09-28T16:05:48.998Z,99475.88
2022-09-28T16:08:46.284Z,99478.72
2022-09-28T16:11:43.115Z,99482.78
2022-09-28T16:14:40.044Z,99482.09
2022-09-28T16:17:38.038Z,99485.06
2022-09-28T16:20:37.384Z,99490.75
2022-09-28T16:23:35.746Z,99494.00
2022-09-28T16:26:40.165Z,99490.38
2022-09-28T16:29:41.682Z,99493.63
2022-09-28T16:32:50.609Z,99488.38
2022-09-28T16:36:05.888Z,99497.84
2022-09-28T16:39:02.867Z,99492.22
2022-09-28T16:42:01.849Z,99493.06
2022-09-28T16:44:59.443Z,99520.63
2022-09-28T16:47:57.510Z,99513.38
2022-09-28T16:50:55.351Z,99523.91
2022-09-28T16:54:10.849Z,99521.50
2022-09-28T16:57:10.026Z,99511.00
2022-09-28T17:00:10.948Z,99515.06
2022-09-28T17:03:15.473Z,99520.75
2022-09-28T17:06:13.383Z,99528.06
2022-09-28T17:09:12.633Z,99532.50
2022-09-28T17:12:18.098Z,99531.69
2022-09-28T17:15:15.770Z,99531.31
2022-09-28T17:18:13.945Z,99539.41
2022-09-28T17:21:19.347Z,99542.22
2022-09-28T17:24:17.876Z,99542.63
2022-09-28T17:27:16.907Z,99550.69
2022-09-28T17:30:14.798Z,99548.66
2022-09-28T17:33:13.160Z,99557.19
2022-09-28T17:36:12.554Z,99553.16
2022-09-28T17:39:12.454Z,99555.97
2022-09-28T17:42:09.968Z,99558.78
2022-09-28T17:45:08.624Z,99556.34
2022-09-28T17:48:11.297Z,99553.13
2022-09-28T17:51:08.435Z,99557.16
2022-09-28T17:54:06.888Z,99560.75
2022-09-28T17:57:03.871Z,99555.88
2022-09-28T18:00:01.700Z,99558.31
2022-09-28T18:03:01.469Z,99567.25
2022-09-28T18:06:04.314Z,99566.06
2022-09-28T18:09:03.093Z,99578.25
2022-09-28T18:12:04.231Z,99570.16
2022-09-28T18:15:01.293Z,99589.59
2022-09-28T18:17:58.271Z,99581.50
2022-09-28T18:20:55.280Z,99575.78
2022-09-28T18:23:52.227Z,99577.66
2022-09-28T18:26:49.092Z,99583.22
2022-09-28T18:29:46.392Z,99592.06
2022-09-28T18:32:43.071Z,99591.72
2022-09-28T18:35:40.076Z,99585.25
2022-09-28T18:38:37.856Z,99592.59
2022-09-28T18:41:35.095Z,99584.66
2022-09-28T18:44:32.469Z,99593.34
2022-09-28T18:47:29.292Z,99598.00
2022-09-28T18:50:26.316Z,99603.72
2022-09-28T18:53:23.917Z,99597.66
2022-09-28T18:56:21.308Z,99611.81
2022-09-28T18:59:18.084Z,99604.84
2022-09-28T19:02:15.724Z,99610.09
2022-09-28T19:05:13.417Z,99607.31
2022-09-28T19:08:10.398Z,99621.56
2022-09-28T19:11:12.423Z,99617.63
2022-09-28T19:14:11.141Z,99620.44
2022-09-28T19:17:08.740Z,99609.09
2022-09-28T19:20:06.912Z,99615.94
2022-09-28T19:23:04.674Z,99620.03
2022-09-28T19:26:12.894Z,99617.16
2022-09-28T19:29:10.523Z,99619.91
2022-09-28T19:32:08.537Z,99623.25
2022-09-28T19:35:06.512Z,99631.78
2022-09-28T19:38:04.527Z,99627.19
2022-09-28T19:41:02.816Z,99628.78
2022-09-28T19:44:02.722Z,99633.72
2022-09-28T19:47:07.379Z,99629.28
2022-09-28T19:50:05.305Z,99626.75
2022-09-28T19:53:02.173Z,99636.78
2022-09-28T19:56:00.125Z,99627.88
2022-09-28T19:58:57.628Z,99627.75
2022-09-28T20:01:56.388Z,99645.59
2022-09-28T20:04:53.148Z,99648.69
2022-09-28T20:07:50.473Z,99646.34
2022-09-28T20:10:52.456Z,99650.78
2022-09-28T20:13:49.712Z,99647.91
2022-09-28T20:16:47.327Z,99658.53
2022-09-28T20:19:44.423Z,99649.53
2022-09-28T20:22:43.772Z,99657.03
2022-09-28T20:25:41.357Z,99658.41
2022-09-28T20:28:38.757Z,99656.25
2022-09-28T20:31:37.108Z,99657.38
2022-09-28T20:34:34.266Z,99657.72
2022-09-28T20:37:33.042Z,99662.03
2022-09-28T20:40:30.208Z,99656.59
2022-09-28T20:43:29.928Z,99652.69
2022-09-28T20:46:27.505Z,99661.16
2022-09-28T20:49:24.499Z,99649.53
2022-09-28T20:52:21.417Z,99651.81
2022-09-28T20:55:18.134Z,99656.09
2022-09-28T20:58:15.278Z,99661.00
2022-09-28T21:01:17.189Z,99665.09
2022-09-28T21:04:14.575Z,99668.16
2022-09-28T21:07:11.295Z,99668.03
2022-09-28T21:10:09.350Z,99670.06
2022-09-28T21:13:06.190Z,99670.06
2022-09-28T21:16:03.773Z,99678.78
2022-09-28T21:19:01.351Z,99674.16
2022-09-28T21:21:58.165Z,99676.63
2022-09-28T21:24:55.247Z,99674.19
2022-09-28T21:27:52.405Z,99676.38
2022-09-28T21:30:50.002Z,99678.50
2022-09-28T21:33:47.597Z,99688.91
2022-09-28T21:36:44.247Z,99695.94
2022-09-28T21:39:41.357Z,99696.19
2022-09-28T21:42:38.561Z,99690.16
2022-09-28T21:45:36.300Z,99687.44
2022-09-28T21:48:33.195Z,99687.00
2022-09-28T21:51:30.605Z,99701.88
2022-09-28T21:54:29.178Z,99703.03
2022-09-28T21:57:26.483Z,99695.72
2022-09-28T22:00:23.589Z,99693.53
2022-09-28T22:03:20.790Z,99709.97
2022-09-28T22:06:19.210Z,99696.63
2022-09-28T22:09:16.302Z,99700.78
2022-09-28T22:12:14.199Z,99703.22
2022-09-28T22:15:11.544Z,99705.91
2022-09-28T22:18:08.829Z,99700.47
2022-09-28T22:21:14.726Z,99709.28
2022-09-28T22:24:12.299Z,99718.03
2022-09-28T22:27:09.361Z,99708.41
2022-09-28T22:30:06.957Z,99697.66
2022-09-28T22:33:04.408Z,99709.44
2022-09-28T22:36:01.471Z,99708.41
2022-09-28T22:38:58.622Z,99716.69
2022-09-28T22:41:55.577Z,99719.13
2022-09-28T22:44:52.758Z,99728.25
2022-09-28T22:47:50.615Z,99730.94
2022-09-28T22:50:51.451Z,99725.94
2022-09-28T22:53:48.555Z,99729.41
2022-09-28T22:56:45.243Z,99733.22
2022-09-28T22:59:42.615Z,99732.06
2022-09-28T23:02:39.754Z,99731.25
2022-09-28T23:05:37.758Z,99733.06
2022-09-28T23:08:35.369Z,99742.47
2022-09-28T23:11:32.218Z,99741.25
2022-09-28T23:14:29.805Z,99739.19
2022-09-28T23:17:27.622Z,99739.66
2022-09-28T23:20:24.314Z,99743.97
2022-09-28T23:23:21.635Z,99744.34
2022-09-28T23:26:20.588Z,99739.41
2022-09-28T23:29:17.406Z,99741.97
2022-09-28T23:32:15.184Z,99750.50
2022-09-28T23:35:13.250Z,99752.47
2022-09-28T23:38:13.678Z,99753.69
2022-09-28T23:41:10.666Z,99747.19
2022-09-28T23:44:07.336Z,99754.50
2022-09-28T23:47:04.579Z,99754.28
2022-09-28T23:50:02.309Z,99755.69
2022-09-28T23:52:59.330Z,99752.69
2022-09-28T23:55:56.343Z,99757.53
2022-09-28T23:58:53.712Z,99753.06
